Terminal Aerodrome Forecast
Issued by NWS Amarillo, TX

Home | Current Version | Previous Version | Text Only | Print | Product List | Glossary On
Versions: 1 2 3 4 5 6 7 8 9 10 11 12 13 14
494
FTUS44 KAMA 030749 AAB
TAFGUY
TAF AMD
KGUY 030749Z 0308/0406 02008KT 2SM -SN BKN004 OVC009
     FM031600 VRB05KT 3SM BR OVC007
     FM040000 VRB05KT 4SM BR OVC005=

USA.gov is the U.S. government's official web portal to all federal, state and local government web resources and services.